createdAt,value
2019-03-30T00:01:50.809Z,9.20
2019-03-30T00:04:22.375Z,10.15
2019-03-30T00:06:53.902Z,11.93
2019-03-30T00:09:25.393Z,12.00
2019-03-30T00:11:57.987Z,13.50
2019-03-30T00:14:30.729Z,13.70
2019-03-30T00:17:02.249Z,12.23
2019-03-30T00:19:35.020Z,12.73
2019-03-30T00:22:07.037Z,11.88
2019-03-30T00:24:39.713Z,11.20
2019-03-30T00:27:12.288Z,10.10
2019-03-30T00:29:43.779Z,11.05
2019-03-30T00:32:15.280Z,15.60
2019-03-30T00:34:47.173Z,13.05
2019-03-30T00:37:19.759Z,11.93
2019-03-30T00:39:51.256Z,15.10
2019-03-30T00:42:22.766Z,11.75
2019-03-30T00:44:54.359Z,10.25
2019-03-30T00:47:25.871Z,9.73
2019-03-30T00:49:57.409Z,11.05
2019-03-30T00:52:28.911Z,10.88
2019-03-30T00:55:00.457Z,11.83
2019-03-30T00:57:32.116Z,12.68
2019-03-30T01:00:04.093Z,15.28
2019-03-30T01:02:36.012Z,11.78
2019-03-30T01:05:07.611Z,12.93
2019-03-30T01:07:39.109Z,12.33
2019-03-30T01:10:10.711Z,12.55
2019-03-30T01:12:42.202Z,9.38
2019-03-30T01:15:13.785Z,10.78
2019-03-30T01:17:45.341Z,8.15
2019-03-30T01:20:17.917Z,12.85
2019-03-30T01:22:49.558Z,11.18
2019-03-30T01:25:21.158Z,19.17
2019-03-30T01:27:52.652Z,10.88
2019-03-30T01:30:25.138Z,11.70
2019-03-30T01:32:56.666Z,11.83
2019-03-30T01:35:28.210Z,11.70
2019-03-30T01:37:59.910Z,15.90
2019-03-30T01:40:31.440Z,17.13
2019-03-30T01:43:05.823Z,18.00
2019-03-30T01:45:37.315Z,15.65
2019-03-30T01:48:08.810Z,18.73
2019-03-30T01:50:40.391Z,25.20
2019-03-30T01:53:11.908Z,28.00
2019-03-30T01:55:43.406Z,21.68
2019-03-30T01:58:14.923Z,23.87
2019-03-30T02:00:46.619Z,26.93
2019-03-30T02:03:19.198Z,29.30
2019-03-30T02:05:50.773Z,33.97
2019-03-30T02:08:22.360Z,32.33
2019-03-30T02:10:55.316Z,36.47
2019-03-30T02:13:26.893Z,33.37
2019-03-30T02:15:58.520Z,30.03
2019-03-30T02:18:30.015Z,27.43
2019-03-30T02:21:01.538Z,30.27
2019-03-30T02:23:33.031Z,31.73
2019-03-30T02:26:04.599Z,38.03
2019-03-30T02:28:36.164Z,37.90
2019-03-30T02:31:07.681Z,42.97
2019-03-30T02:33:39.198Z,45.73
2019-03-30T02:36:10.762Z,46.37
2019-03-30T02:38:42.352Z,44.07
2019-03-30T02:41:13.850Z,32.27
2019-03-30T02:43:45.376Z,37.00
2019-03-30T02:46:16.887Z,27.83
2019-03-30T02:48:48.382Z,28.60
2019-03-30T02:51:19.909Z,30.20
2019-03-30T02:53:51.414Z,23.03
2019-03-30T02:56:22.913Z,25.63
2019-03-30T02:58:54.413Z,27.67
2019-03-30T03:01:25.907Z,35.83
2019-03-30T03:03:57.433Z,44.20
2019-03-30T03:06:30.149Z,40.10
2019-03-30T03:09:01.678Z,46.53
2019-03-30T03:11:34.353Z,43.40
2019-03-30T03:14:05.941Z,47.83
2019-03-30T03:16:37.477Z,50.20
2019-03-30T03:19:09.057Z,50.77
2019-03-30T03:21:40.541Z,39.40
2019-03-30T03:24:12.105Z,37.63
2019-03-30T03:26:43.694Z,46.47
2019-03-30T03:29:15.310Z,40.63
2019-03-30T03:31:46.872Z,40.00
2019-03-30T03:34:18.474Z,45.77
2019-03-30T03:36:49.985Z,32.77
2019-03-30T03:39:21.491Z,42.33
2019-03-30T03:41:53.074Z,41.87
2019-03-30T03:44:24.571Z,34.87
2019-03-30T03:46:56.165Z,35.83
2019-03-30T03:49:27.758Z,34.23
2019-03-30T03:51:59.448Z,31.60
2019-03-30T03:54:30.960Z,30.87
2019-03-30T03:57:03.873Z,31.90
2019-03-30T03:59:35.383Z,29.77
2019-03-30T04:02:06.900Z,24.57
2019-03-30T04:04:39.801Z,29.23
2019-03-30T04:07:11.301Z,28.63
2019-03-30T04:09:44.975Z,27.77
2019-03-30T04:12:16.445Z,36.77
2019-03-30T04:14:51.479Z,35.93
2019-03-30T04:17:23.059Z,35.63
2019-03-30T04:19:54.724Z,33.23
2019-03-30T04:22:26.423Z,34.43
2019-03-30T04:24:58.033Z,34.87
2019-03-30T04:27:29.584Z,30.37
2019-03-30T04:30:01.131Z,29.47
2019-03-30T04:32:32.634Z,37.57
2019-03-30T04:35:05.799Z,36.53
2019-03-30T04:37:37.393Z,42.33
2019-03-30T04:40:08.923Z,34.60
2019-03-30T04:42:40.430Z,44.33
2019-03-30T04:45:12.030Z,44.63
2019-03-30T04:47:43.611Z,36.93
2019-03-30T04:50:15.203Z,43.03
2019-03-30T04:52:46.796Z,31.63
2019-03-30T04:55:18.293Z,40.17
2019-03-30T04:57:51.712Z,37.10
2019-03-30T05:00:23.344Z,29.47
2019-03-30T05:02:54.861Z,41.03
2019-03-30T05:05:26.354Z,43.30
2019-03-30T05:07:57.986Z,40.57
2019-03-30T05:10:29.567Z,40.13
2019-03-30T05:13:01.070Z,34.53
2019-03-30T05:15:32.579Z,40.97
2019-03-30T05:18:04.157Z,34.50
2019-03-30T05:20:35.727Z,39.03
2019-03-30T05:23:07.254Z,44.77
2019-03-30T05:25:38.934Z,47.30
2019-03-30T05:28:10.448Z,46.87
2019-03-30T05:30:41.961Z,47.33
2019-03-30T05:33:13.479Z,47.40
2019-03-30T05:35:44.995Z,40.63
2019-03-30T05:38:16.485Z,39.57
2019-03-30T05:40:48.070Z,42.43
2019-03-30T05:43:19.654Z,44.47
2019-03-30T05:45:51.237Z,39.33
2019-03-30T05:48:22.882Z,50.63
2019-03-30T05:50:54.395Z,51.67
2019-03-30T05:53:26.083Z,51.70
2019-03-30T05:55:57.941Z,38.73
2019-03-30T05:58:29.779Z,51.07
2019-03-30T06:01:01.376Z,37.37
2019-03-30T06:03:32.956Z,37.33
2019-03-30T06:06:04.583Z,39.20
2019-03-30T06:08:36.151Z,39.60
2019-03-30T06:11:07.676Z,37.85
2019-03-30T06:13:39.288Z,31.20
2019-03-30T06:16:10.804Z,38.42
2019-03-30T06:18:42.328Z,41.42
2019-03-30T06:21:13.928Z,39.55
2019-03-30T06:23:48.514Z,40.20
2019-03-30T06:26:18.673Z,37.65
2019-03-30T06:28:50.173Z,38.00
2019-03-30T06:31:23.315Z,34.63
2019-03-30T06:33:54.827Z,41.23
2019-03-30T06:36:26.338Z,39.18
2019-03-30T06:38:57.849Z,47.13
2019-03-30T06:41:29.430Z,30.68
2019-03-30T06:44:01.007Z,36.95
2019-03-30T06:46:32.537Z,38.95
2019-03-30T06:49:05.394Z,37.65
2019-03-30T06:51:37.005Z,34.75
2019-03-30T06:54:08.527Z,33.63
2019-03-30T06:56:43.281Z,25.85
2019-03-30T06:59:14.829Z,38.53
2019-03-30T07:01:46.412Z,31.12
2019-03-30T07:04:18.014Z,40.23
2019-03-30T07:06:49.603Z,31.05
2019-03-30T07:09:21.286Z,33.25
2019-03-30T07:11:52.788Z,36.70
2019-03-30T07:14:24.334Z,35.00
2019-03-30T07:16:55.928Z,29.40
2019-03-30T07:19:27.763Z,36.80
2019-03-30T07:21:59.285Z,30.10
2019-03-30T07:24:32.845Z,35.10
2019-03-30T07:27:04.018Z,34.58
2019-03-30T07:29:35.626Z,39.58
2019-03-30T07:32:07.132Z,26.80
2019-03-30T07:34:41.589Z,34.25
2019-03-30T07:37:11.883Z,33.20
2019-03-30T07:39:43.383Z,26.70
2019-03-30T07:42:15.529Z,43.17
2019-03-30T07:44:47.182Z,41.33
2019-03-30T07:47:18.781Z,31.00
2019-03-30T07:49:50.285Z,33.83
2019-03-30T07:52:23.516Z,33.10
2019-03-30T07:54:55.984Z,34.20
2019-03-30T07:57:27.665Z,34.38
2019-03-30T07:59:59.196Z,27.25
2019-03-30T08:02:34.244Z,30.48
2019-03-30T08:05:08.641Z,28.70
2019-03-30T08:07:41.847Z,26.52
2019-03-30T08:10:13.369Z,20.95
2019-03-30T08:12:44.967Z,35.00
2019-03-30T08:15:16.554Z,26.75
2019-03-30T08:17:48.152Z,23.20
2019-03-30T08:20:21.260Z,24.92
2019-03-30T08:22:52.833Z,27.25
2019-03-30T08:25:26.133Z,27.65
2019-03-30T08:27:57.790Z,34.20
2019-03-30T08:30:33.344Z,29.87
2019-03-30T08:33:04.945Z,24.27
2019-03-30T08:35:36.540Z,25.32
2019-03-30T08:38:08.041Z,26.10
2019-03-30T08:40:39.638Z,24.60
2019-03-30T08:43:11.234Z,23.70
2019-03-30T08:45:42.845Z,24.10
2019-03-30T08:48:14.431Z,20.75
2019-03-30T08:50:45.937Z,23.00
2019-03-30T08:53:17.519Z,22.27
2019-03-30T08:55:49.232Z,17.65
2019-03-30T08:58:20.753Z,24.18
2019-03-30T09:00:52.332Z,20.43
2019-03-30T09:03:23.946Z,17.42
2019-03-30T09:05:55.444Z,20.68
2019-03-30T09:08:27.003Z,23.15
2019-03-30T09:10:58.519Z,25.60
2019-03-30T09:13:31.628Z,26.62
2019-03-30T09:16:03.140Z,24.52
2019-03-30T09:18:34.725Z,21.40
2019-03-30T09:21:06.336Z,25.77
2019-03-30T09:23:37.856Z,25.48
2019-03-30T09:26:09.438Z,27.85
2019-03-30T09:28:40.935Z,32.20
2019-03-30T09:31:12.441Z,23.22
2019-03-30T09:33:43.961Z,24.10
2019-03-30T09:36:15.490Z,25.43
2019-03-30T09:38:47.012Z,25.52
2019-03-30T09:41:18.530Z,19.75
2019-03-30T09:43:52.093Z,18.82
2019-03-30T09:46:23.281Z,20.72
2019-03-30T09:48:54.797Z,24.20
2019-03-30T09:51:26.431Z,20.35
2019-03-30T09:53:57.967Z,15.35
2019-03-30T09:56:29.488Z,18.07
2019-03-30T09:59:01.143Z,19.25
2019-03-30T10:01:35.468Z,20.85
2019-03-30T10:04:06.998Z,22.82
2019-03-30T10:06:40.146Z,23.57
2019-03-30T10:09:15.477Z,20.60
2019-03-30T10:11:47.002Z,18.42
2019-03-30T10:14:18.528Z,24.85
2019-03-30T10:16:52.037Z,22.67
2019-03-30T10:19:27.803Z,19.75
2019-03-30T10:21:59.490Z,22.10
2019-03-30T10:24:38.346Z,25.57
2019-03-30T10:27:07.402Z,17.77
2019-03-30T10:29:38.992Z,29.02
2019-03-30T10:32:10.518Z,26.07
2019-03-30T10:34:43.643Z,20.20
2019-03-30T10:37:15.140Z,18.42
2019-03-30T10:39:46.726Z,25.00
2019-03-30T10:42:18.240Z,25.88
2019-03-30T10:44:49.743Z,21.25
2019-03-30T10:47:23.025Z,21.35
2019-03-30T10:49:55.675Z,29.18
2019-03-30T10:52:27.269Z,20.95
2019-03-30T10:54:58.769Z,26.27
2019-03-30T10:57:33.477Z,27.05
2019-03-30T11:00:07.767Z,23.77
2019-03-30T11:02:40.423Z,23.92
2019-03-30T11:05:11.969Z,22.82
2019-03-30T11:07:43.496Z,24.32
2019-03-30T11:10:15.021Z,24.15
2019-03-30T11:12:46.530Z,19.60
2019-03-30T11:15:18.049Z,25.68
2019-03-30T11:17:49.555Z,26.35
2019-03-30T11:20:21.147Z,24.55
2019-03-30T11:22:52.668Z,23.45
2019-03-30T11:25:24.163Z,26.07
2019-03-30T11:27:55.763Z,30.52
2019-03-30T11:30:27.305Z,24.63
2019-03-30T11:32:58.819Z,26.95
2019-03-30T11:35:33.126Z,28.50
2019-03-30T11:38:04.694Z,36.08
2019-03-30T11:40:36.281Z,35.28
2019-03-30T11:43:08.853Z,31.33
2019-03-30T11:45:40.424Z,26.77
2019-03-30T11:48:11.930Z,26.27
2019-03-30T11:50:43.533Z,26.45
2019-03-30T11:53:15.115Z,29.75
2019-03-30T11:55:46.675Z,26.80
2019-03-30T11:58:18.184Z,25.80
2019-03-30T12:00:49.729Z,27.27
2019-03-30T12:03:21.231Z,28.87
2019-03-30T12:05:52.749Z,27.25
2019-03-30T12:08:24.337Z,29.32
2019-03-30T12:10:55.946Z,24.32
2019-03-30T12:13:27.474Z,26.65
2019-03-30T12:15:58.993Z,27.48
2019-03-30T12:18:33.616Z,32.23
2019-03-30T12:21:05.132Z,28.73
2019-03-30T12:23:36.660Z,25.23
2019-03-30T12:26:08.156Z,28.87
2019-03-30T12:28:39.710Z,23.83
2019-03-30T12:31:11.223Z,25.08
2019-03-30T12:33:42.748Z,30.95
2019-03-30T12:36:14.276Z,28.67
2019-03-30T12:38:45.937Z,26.68
2019-03-30T12:41:18.432Z,24.05
2019-03-30T12:43:51.500Z,28.30
2019-03-30T12:46:23.010Z,23.98
2019-03-30T12:48:54.531Z,26.42
2019-03-30T12:51:26.137Z,29.25
2019-03-30T12:53:57.642Z,29.92
2019-03-30T12:56:29.165Z,26.17
2019-03-30T12:59:06.450Z,27.52
2019-03-30T13:01:34.034Z,31.48
2019-03-30T13:04:06.230Z,27.45
2019-03-30T13:06:37.840Z,33.28
2019-03-30T13:09:09.438Z,30.40
2019-03-30T13:11:41.058Z,31.05
2019-03-30T13:14:12.563Z,32.45
2019-03-30T13:16:44.083Z,29.15
2019-03-30T13:19:15.607Z,30.72
2019-03-30T13:21:52.737Z,31.05
2019-03-30T13:24:23.764Z,31.50
2019-03-30T13:27:01.876Z,34.00
2019-03-30T13:29:33.459Z,29.87
2019-03-30T13:32:05.043Z,32.70
2019-03-30T13:34:36.612Z,34.83
2019-03-30T13:37:18.699Z,31.82
2019-03-30T13:39:50.296Z,34.27
2019-03-30T13:42:21.953Z,30.70
2019-03-30T13:44:53.489Z,28.92
2019-03-30T13:47:25.028Z,28.80
2019-03-30T13:49:56.560Z,32.28
2019-03-30T13:52:28.154Z,28.12
2019-03-30T13:54:59.655Z,32.80
2019-03-30T13:57:31.254Z,33.80
2019-03-30T14:00:03.424Z,29.32
2019-03-30T14:02:35.004Z,33.42
2019-03-30T14:05:06.803Z,34.58
2019-03-30T14:07:38.299Z,36.55
2019-03-30T14:10:09.974Z,32.58
2019-03-30T14:12:41.566Z,34.03
2019-03-30T14:15:13.106Z,31.57
2019-03-30T14:17:44.698Z,29.37
2019-03-30T14:20:16.237Z,33.25
2019-03-30T14:22:47.842Z,30.45
2019-03-30T14:25:19.372Z,31.23
2019-03-30T14:27:52.060Z,32.80
2019-03-30T14:30:23.652Z,29.83
2019-03-30T14:32:55.231Z,31.15
2019-03-30T14:35:26.763Z,30.00
2019-03-30T14:37:58.294Z,34.58
2019-03-30T14:40:29.781Z,35.78
2019-03-30T14:43:01.390Z,29.52
2019-03-30T14:45:32.934Z,30.00
2019-03-30T14:48:04.523Z,33.95
2019-03-30T14:50:36.023Z,29.42
2019-03-30T14:53:07.621Z,28.90
2019-03-30T14:55:39.810Z,27.42
2019-03-30T14:58:11.422Z,27.35
2019-03-30T15:00:43.056Z,29.20
2019-03-30T15:03:14.556Z,28.87
2019-03-30T15:05:46.148Z,30.80
2019-03-30T15:08:17.648Z,24.27
2019-03-30T15:10:49.187Z,29.07
2019-03-30T15:13:20.698Z,26.50
2019-03-30T15:15:52.220Z,30.10
2019-03-30T15:18:23.746Z,29.37
2019-03-30T15:20:55.401Z,27.60
2019-03-30T15:23:27.270Z,28.17
2019-03-30T15:25:59.045Z,25.08
2019-03-30T15:28:30.581Z,27.65
2019-03-30T15:31:02.185Z,29.05
2019-03-30T15:33:33.714Z,27.05
2019-03-30T15:36:05.451Z,28.05
2019-03-30T15:38:37.061Z,25.57
2019-03-30T15:41:28.812Z,25.85
2019-03-30T15:45:48.889Z,24.18
2019-03-30T15:46:45.114Z,27.93
2019-03-30T15:49:16.710Z,26.55
2019-03-30T15:51:48.331Z,26.82
2019-03-30T15:54:21.856Z,27.67
2019-03-30T15:56:53.077Z,25.23
2019-03-30T15:59:25.314Z,29.02
2019-03-30T16:01:56.842Z,26.55
2019-03-30T16:04:28.441Z,25.50
2019-03-30T16:07:00.069Z,24.92
2019-03-30T16:09:31.673Z,26.57
2019-03-30T16:12:03.201Z,28.35
2019-03-30T16:14:42.844Z,32.25
2019-03-30T16:17:14.978Z,34.65
2019-03-30T16:19:46.594Z,27.75
2019-03-30T16:22:18.126Z,29.32
2019-03-30T16:24:56.386Z,28.70
2019-03-30T16:27:29.407Z,30.92
2019-03-30T16:30:01.066Z,32.53
2019-03-30T16:32:34.617Z,26.87
2019-03-30T16:35:06.582Z,31.02
2019-03-30T16:37:38.107Z,30.00
2019-03-30T16:40:09.661Z,26.68
2019-03-30T16:42:41.255Z,27.60
2019-03-30T16:45:12.782Z,29.15
2019-03-30T16:47:44.310Z,37.00
2019-03-30T16:50:17.442Z,31.25
2019-03-30T16:52:48.967Z,29.07
2019-03-30T16:55:20.493Z,24.67
2019-03-30T16:57:52.045Z,26.68
2019-03-30T17:00:23.649Z,30.57
2019-03-30T17:02:55.315Z,31.57
2019-03-30T17:05:26.837Z,29.02
2019-03-30T17:07:58.338Z,30.17
2019-03-30T17:10:29.859Z,29.07
2019-03-30T17:13:01.531Z,28.60
2019-03-30T17:15:33.103Z,31.10
2019-03-30T17:18:04.675Z,33.33
2019-03-30T17:20:36.268Z,31.30
2019-03-30T17:23:07.781Z,27.80
2019-03-30T17:25:40.373Z,24.05
2019-03-30T17:28:11.876Z,32.00
2019-03-30T17:30:43.473Z,28.92
2019-03-30T17:33:15.152Z,28.67
2019-03-30T17:35:46.720Z,32.93
2019-03-30T17:38:18.308Z,31.62
2019-03-30T17:40:49.995Z,29.67
2019-03-30T17:43:21.573Z,32.90
2019-03-30T17:45:53.175Z,42.00
2019-03-30T17:48:24.789Z,39.23
2019-03-30T17:50:58.071Z,40.65
2019-03-30T17:53:30.579Z,37.10
2019-03-30T17:56:02.250Z,33.90
2019-03-30T17:58:33.880Z,34.58
2019-03-30T18:01:05.525Z,36.68
2019-03-30T18:03:37.097Z,34.03
2019-03-30T18:06:08.628Z,33.10
2019-03-30T18:08:40.223Z,44.88
2019-03-30T18:11:11.748Z,36.23
2019-03-30T18:13:43.274Z,43.38
2019-03-30T18:16:14.790Z,52.65
2019-03-30T18:18:46.314Z,44.85
2019-03-30T18:21:17.907Z,53.55
2019-03-30T18:23:49.432Z,45.45
2019-03-30T18:26:21.010Z,49.38
2019-03-30T18:28:52.612Z,55.00
2019-03-30T18:31:24.143Z,46.25
2019-03-30T18:33:55.678Z,54.10
2019-03-30T18:36:27.177Z,51.90
2019-03-30T18:39:09.424Z,58.70
2019-03-30T18:41:34.211Z,63.05
2019-03-30T18:44:05.862Z,59.60
2019-03-30T18:46:37.403Z,65.97
2019-03-30T18:49:09.192Z,59.83
2019-03-30T18:51:42.116Z,67.35
2019-03-30T18:54:13.659Z,70.08
2019-03-30T18:56:45.210Z,80.65
2019-03-30T18:59:16.803Z,78.95
2019-03-30T19:01:48.396Z,79.82
2019-03-30T19:04:19.944Z,90.62
2019-03-30T19:06:51.683Z,90.62
2019-03-30T19:09:23.389Z,86.70
2019-03-30T19:11:55.049Z,86.75
2019-03-30T19:14:26.735Z,89.67
2019-03-30T19:16:58.273Z,94.95
2019-03-30T19:19:29.804Z,98.47
2019-03-30T19:22:01.345Z,100.42
2019-03-30T19:24:32.976Z,142.05
2019-03-30T19:27:04.915Z,137.92
2019-03-30T19:29:36.702Z,129.45
2019-03-30T19:32:08.364Z,108.20
2019-03-30T19:34:39.936Z,122.40
2019-03-30T19:37:11.558Z,86.42
2019-03-30T19:39:44.256Z,79.70
2019-03-30T19:42:16.049Z,86.00
2019-03-30T19:44:47.595Z,72.05
2019-03-30T19:47:19.150Z,91.22
2019-03-30T19:49:50.668Z,91.15
2019-03-30T19:52:22.222Z,115.57
2019-03-30T19:54:53.763Z,116.65
2019-03-30T19:57:28.546Z,120.30
2019-03-30T20:00:00.364Z,111.10
2019-03-30T20:02:32.027Z,118.20
2019-03-30T20:05:03.866Z,147.75
2019-03-30T20:07:35.416Z,148.62
2019-03-30T20:10:07.138Z,148.87
2019-03-30T20:12:39.022Z,155.30
2019-03-30T20:15:10.555Z,143.97
2019-03-30T20:17:42.097Z,161.73
2019-03-30T20:20:13.660Z,140.00
2019-03-30T20:22:45.223Z,124.40
2019-03-30T20:25:16.835Z,151.07
2019-03-30T20:27:48.387Z,154.68
2019-03-30T20:30:19.928Z,132.52
2019-03-30T20:32:51.456Z,135.22
2019-03-30T20:35:23.260Z,153.95
2019-03-30T20:37:54.813Z,166.85
2019-03-30T20:40:26.409Z,166.37
2019-03-30T20:42:58.004Z,194.75
2019-03-30T20:45:29.622Z,198.35
2019-03-30T20:48:01.176Z,212.90
2019-03-30T20:50:32.718Z,187.72
2019-03-30T20:53:04.330Z,204.95
2019-03-30T20:55:35.959Z,204.10
2019-03-30T20:58:35.302Z,220.78
2019-03-30T21:01:08.586Z,241.05
2019-03-30T21:03:40.137Z,223.65
2019-03-30T21:06:11.696Z,237.97
2019-03-30T21:08:43.243Z,253.20
2019-03-30T21:11:14.792Z,243.30
2019-03-30T21:13:46.433Z,242.30
2019-03-30T21:16:17.953Z,197.15
2019-03-30T21:18:49.574Z,231.97
2019-03-30T21:21:21.188Z,218.07
2019-03-30T21:23:52.744Z,222.82
2019-03-30T21:26:24.372Z,225.68
2019-03-30T21:28:55.974Z,211.72
2019-03-30T21:31:27.523Z,230.18
2019-03-30T21:33:59.209Z,224.30
2019-03-30T21:36:30.760Z,213.12
2019-03-30T21:39:02.421Z,213.55
2019-03-30T21:41:35.339Z,223.93
2019-03-30T21:44:21.119Z,235.05
2019-03-30T21:46:40.318Z,210.05
2019-03-30T21:49:11.862Z,202.30
2019-03-30T21:51:43.490Z,147.30
2019-03-30T21:54:15.198Z,172.07
2019-03-30T21:56:46.845Z,161.40
2019-03-30T21:59:18.383Z,171.53
2019-03-30T22:01:50.069Z,124.85
2019-03-30T22:04:21.601Z,160.85
2019-03-30T22:06:53.153Z,180.50
2019-03-30T22:09:25.790Z,174.35
2019-03-30T22:11:57.346Z,164.70
2019-03-30T22:14:29.859Z,173.07
2019-03-30T22:17:01.398Z,169.87
2019-03-30T22:19:33.005Z,173.93
2019-03-30T22:22:04.545Z,163.47
2019-03-30T22:24:36.977Z,171.60
2019-03-30T22:27:08.492Z,185.48
2019-03-30T22:29:40.038Z,144.30
2019-03-30T22:32:11.582Z,146.50
2019-03-30T22:34:43.141Z,142.93
2019-03-30T22:37:14.754Z,135.03
2019-03-30T22:39:46.307Z,144.60
2019-03-30T22:42:17.861Z,145.63
2019-03-30T22:44:49.424Z,109.87
2019-03-30T22:47:21.019Z,148.43
2019-03-30T22:49:52.691Z,145.53
2019-03-30T22:52:24.228Z,161.77
2019-03-30T22:54:55.884Z,153.77
2019-03-30T22:57:27.425Z,159.20
2019-03-30T22:59:59.004Z,164.97
2019-03-30T23:02:30.712Z,152.40
2019-03-30T23:05:02.330Z,176.37
2019-03-30T23:07:35.121Z,158.07
2019-03-30T23:10:07.678Z,170.80
2019-03-30T23:12:39.239Z,169.33
2019-03-30T23:15:10.828Z,171.07
2019-03-30T23:17:42.452Z,167.27
2019-03-30T23:20:14.067Z,172.47
2019-03-30T23:22:47.959Z,160.67
2019-03-30T23:25:26.342Z,148.03
2019-03-30T23:27:57.616Z,149.13
2019-03-30T23:30:30.929Z,146.63
2019-03-30T23:33:04.012Z,143.63
2019-03-30T23:35:35.613Z,124.47
2019-03-30T23:38:07.228Z,133.53
2019-03-30T23:40:38.838Z,138.50
2019-03-30T23:43:10.452Z,130.77
2019-03-30T23:45:42.001Z,124.73
2019-03-30T23:48:13.606Z,130.70
2019-03-30T23:50:45.147Z,132.77
2019-03-30T23:53:16.690Z,131.47
2019-03-30T23:55:48.245Z,133.63
2019-03-30T23:58:19.787Z,142.53
